createdAt,value
2023-04-15T00:00:24.003Z,209.23
2023-04-15T00:01:23.996Z,210.06
2023-04-15T00:02:24.171Z,210.56
2023-04-15T00:03:24.219Z,210.40
2023-04-15T00:04:24.103Z,210.70
2023-04-15T00:05:23.974Z,211.15
2023-04-15T00:06:24.060Z,209.85
2023-04-15T00:07:24.079Z,211.70
2023-04-15T00:08:24.145Z,209.82
2023-04-15T00:09:24.226Z,210.38
2023-04-15T00:10:24.269Z,210.74
2023-04-15T00:11:24.300Z,210.15
2023-04-15T00:12:24.386Z,210.49
2023-04-15T00:13:24.413Z,210.77
2023-04-15T00:14:24.504Z,211.28
2023-04-15T00:15:24.558Z,208.44
2023-04-15T00:16:24.642Z,210.00
2023-04-15T00:17:24.661Z,211.99
2023-04-15T00:18:24.739Z,211.57
2023-04-15T00:19:24.764Z,210.79
2023-04-15T00:20:24.830Z,211.32
2023-04-15T00:21:24.920Z,210.34
2023-04-15T00:22:24.948Z,211.23
2023-04-15T00:23:25.003Z,211.31
2023-04-15T00:24:25.078Z,211.74
2023-04-15T00:25:25.207Z,210.04
2023-04-15T00:26:25.172Z,210.48
2023-04-15T00:27:25.255Z,210.95
2023-04-15T00:28:25.313Z,209.42
2023-04-15T00:29:25.464Z,211.23
2023-04-15T00:30:25.422Z,211.21
2023-04-15T00:31:25.575Z,210.20
2023-04-15T00:32:25.532Z,209.16
2023-04-15T00:33:25.589Z,211.87
2023-04-15T00:34:25.660Z,209.17
2023-04-15T00:35:25.729Z,211.69
2023-04-15T00:36:25.763Z,210.20
2023-04-15T00:37:25.822Z,210.59
2023-04-15T00:38:25.885Z,211.52
2023-04-15T00:39:25.884Z,209.15
2023-04-15T00:40:25.951Z,211.41
2023-04-15T00:41:26.000Z,211.91
2023-04-15T00:42:26.056Z,211.33
2023-04-15T00:43:26.126Z,210.04
2023-04-15T00:44:26.169Z,211.75
2023-04-15T00:45:26.237Z,209.10
2023-04-15T00:46:26.305Z,210.29
2023-04-15T00:47:26.400Z,211.28
2023-04-15T00:48:26.419Z,211.81
2023-04-15T00:49:26.480Z,209.74
2023-04-15T00:50:26.524Z,209.69
2023-04-15T00:51:26.585Z,212.22
2023-04-15T00:52:26.637Z,208.30
2023-04-15T00:53:26.708Z,210.29
2023-04-15T00:54:26.809Z,211.33
2023-04-15T00:55:26.816Z,210.35
2023-04-15T00:56:26.909Z,209.76
2023-04-15T00:57:26.984Z,211.82
2023-04-15T00:58:27.046Z,212.73
2023-04-15T00:59:27.185Z,210.46
2023-04-15T01:00:27.168Z,212.29
2023-04-15T01:01:27.272Z,212.25
2023-04-15T01:02:27.869Z,209.41
2023-04-15T01:03:27.456Z,212.34
2023-04-15T01:04:27.529Z,211.67
2023-04-15T01:05:27.446Z,210.96
2023-04-15T01:06:27.503Z,212.16
2023-04-15T01:07:27.549Z,211.09
2023-04-15T01:08:27.619Z,212.44
2023-04-15T01:09:27.674Z,212.47
2023-04-15T01:10:27.797Z,210.45
2023-04-15T01:11:27.785Z,212.19
2023-04-15T01:12:27.856Z,212.43
2023-04-15T01:13:27.907Z,213.10
2023-04-15T01:14:28.021Z,210.51
2023-04-15T01:15:28.022Z,211.45
2023-04-15T01:16:28.233Z,210.42
2023-04-15T01:17:28.179Z,210.71
2023-04-15T01:18:28.274Z,211.98
2023-04-15T01:19:28.308Z,211.16
2023-04-15T01:20:28.369Z,210.37
2023-04-15T01:21:28.478Z,210.85
2023-04-15T01:22:28.471Z,210.19
2023-04-15T01:23:28.542Z,210.80
2023-04-15T01:24:28.583Z,211.12
2023-04-15T01:25:28.650Z,210.64
2023-04-15T01:26:28.685Z,212.00
2023-04-15T01:27:28.783Z,212.53
2023-04-15T01:28:28.822Z,210.33
2023-04-15T01:29:28.905Z,211.68
2023-04-15T01:30:29.001Z,211.00
2023-04-15T01:31:29.097Z,211.39
2023-04-15T01:32:29.117Z,212.78
2023-04-15T01:33:29.175Z,212.04
2023-04-15T01:34:29.229Z,212.81
2023-04-15T01:35:29.281Z,210.27
2023-04-15T01:36:29.360Z,211.97
2023-04-15T01:37:29.401Z,211.75
2023-04-15T01:38:29.454Z,212.02
2023-04-15T01:39:29.533Z,212.59
2023-04-15T01:40:29.582Z,211.79
2023-04-15T01:41:29.653Z,211.82
2023-04-15T01:42:29.704Z,211.06
2023-04-15T01:43:29.757Z,211.92
2023-04-15T01:44:29.830Z,212.41
2023-04-15T01:45:29.895Z,213.65
2023-04-15T01:46:30.032Z,212.43
2023-04-15T01:47:30.033Z,211.73
2023-04-15T01:48:30.093Z,212.21
2023-04-15T01:49:30.153Z,212.04
2023-04-15T01:50:30.223Z,211.37
2023-04-15T01:51:30.272Z,212.01
2023-04-15T01:52:30.337Z,213.50
2023-04-15T01:53:30.388Z,213.69
2023-04-15T01:54:30.399Z,212.68
2023-04-15T01:55:30.428Z,212.34
2023-04-15T01:56:30.458Z,213.19
2023-04-15T01:57:30.569Z,212.30
2023-04-15T01:58:30.623Z,210.90
2023-04-15T01:59:30.627Z,211.15
2023-04-15T02:00:30.700Z,211.54
2023-04-15T02:01:30.911Z,212.88
2023-04-15T02:02:30.991Z,211.23
2023-04-15T02:03:31.026Z,214.92
2023-04-15T02:04:30.920Z,212.18
2023-04-15T02:05:30.984Z,213.18
2023-04-15T02:06:31.014Z,211.85
2023-04-15T02:07:31.055Z,210.41
2023-04-15T02:08:31.149Z,211.69
2023-04-15T02:09:31.213Z,212.18
2023-04-15T02:10:31.330Z,213.31
2023-04-15T02:11:31.339Z,211.78
2023-04-15T02:12:31.341Z,213.13
2023-04-15T02:13:31.372Z,209.59
2023-04-15T02:14:31.466Z,213.03
2023-04-15T02:15:31.497Z,212.46
2023-04-15T02:16:31.686Z,209.90
2023-04-15T02:17:31.595Z,211.74
2023-04-15T02:18:31.622Z,212.88
2023-04-15T02:19:31.680Z,211.31
2023-04-15T02:20:31.684Z,211.76
2023-04-15T02:21:31.770Z,211.75
2023-04-15T02:22:31.812Z,211.79
2023-04-15T02:23:31.980Z,211.99
2023-04-15T02:24:31.952Z,212.09
2023-04-15T02:25:32.033Z,211.04
2023-04-15T02:26:32.135Z,212.49
2023-04-15T02:27:32.248Z,212.38
2023-04-15T02:28:32.358Z,210.25
2023-04-15T02:29:32.389Z,211.06
2023-04-15T02:30:32.484Z,212.06
2023-04-15T02:31:32.561Z,211.50
2023-04-15T02:32:32.678Z,213.29
2023-04-15T02:33:32.637Z,212.58
2023-04-15T02:34:32.714Z,212.60
2023-04-15T02:35:32.678Z,211.28
2023-04-15T02:36:32.739Z,211.57
2023-04-15T02:37:32.790Z,211.94
2023-04-15T02:38:32.813Z,210.47
2023-04-15T02:39:32.843Z,210.89
2023-04-15T02:40:32.875Z,211.61
2023-04-15T02:41:32.908Z,210.84
2023-04-15T02:42:32.928Z,210.32
2023-04-15T02:43:32.927Z,210.52
2023-04-15T02:44:32.930Z,212.76
2023-04-15T02:45:32.933Z,214.89
2023-04-15T02:46:32.950Z,212.45
2023-04-15T02:47:32.958Z,211.67
2023-04-15T02:48:33.020Z,211.74
2023-04-15T02:49:33.137Z,212.39
2023-04-15T02:50:33.226Z,214.62
2023-04-15T02:51:33.304Z,212.25
2023-04-15T02:52:33.289Z,212.01
2023-04-15T02:53:33.342Z,214.39
2023-04-15T02:54:33.294Z,212.79
2023-04-15T02:55:33.361Z,213.22
2023-04-15T02:56:33.276Z,209.68
2023-04-15T02:57:33.318Z,211.55
2023-04-15T02:58:33.445Z,211.99
2023-04-15T02:59:33.424Z,210.82
2023-04-15T03:00:33.437Z,211.74
2023-04-15T03:01:33.530Z,211.65
2023-04-15T03:02:33.495Z,212.82
2023-04-15T03:03:33.403Z,215.19
2023-04-15T03:04:33.405Z,211.46
2023-04-15T03:05:33.365Z,212.80
2023-04-15T03:06:33.352Z,212.69
2023-04-15T03:07:33.385Z,212.48
2023-04-15T03:08:33.397Z,210.96
2023-04-15T03:09:33.466Z,211.14
2023-04-15T03:10:33.498Z,211.38
2023-04-15T03:11:34.350Z,211.87
2023-04-15T03:12:33.668Z,212.80
2023-04-15T03:13:33.789Z,214.81
2023-04-15T03:14:33.817Z,210.46
2023-04-15T03:15:33.923Z,213.45
2023-04-15T03:16:34.005Z,212.05
2023-04-15T03:17:34.179Z,212.66
2023-04-15T03:18:34.128Z,214.15
2023-04-15T03:19:34.161Z,212.78
2023-04-15T03:20:34.152Z,211.86
2023-04-15T03:21:34.093Z,210.10
2023-04-15T03:22:34.103Z,211.82
2023-04-15T03:23:34.180Z,210.91
2023-04-15T03:24:34.291Z,209.93
2023-04-15T03:25:34.244Z,212.48
2023-04-15T03:26:34.262Z,211.23
2023-04-15T03:27:34.293Z,211.53
2023-04-15T03:28:34.303Z,213.12
2023-04-15T03:29:34.314Z,211.19
2023-04-15T03:30:34.362Z,211.33
2023-04-15T03:31:34.394Z,213.02
2023-04-15T03:32:34.403Z,211.62
2023-04-15T03:33:34.335Z,212.14
2023-04-15T03:34:34.350Z,212.43
2023-04-15T03:35:34.387Z,211.48
2023-04-15T03:36:34.454Z,212.15
2023-04-15T03:37:34.575Z,212.55
2023-04-15T03:38:34.686Z,211.79
2023-04-15T03:39:34.638Z,211.57
2023-04-15T03:40:34.632Z,210.53
2023-04-15T03:41:34.620Z,212.61
2023-04-15T03:42:34.632Z,212.04
2023-04-15T03:43:34.734Z,211.58
2023-04-15T03:44:34.706Z,211.13
2023-04-15T03:45:34.837Z,211.77
2023-04-15T03:46:35.018Z,212.27
2023-04-15T03:47:35.063Z,209.02
2023-04-15T03:48:35.160Z,211.18
2023-04-15T03:49:35.106Z,209.73
2023-04-15T03:50:35.113Z,209.39
2023-04-15T03:51:35.105Z,207.70
2023-04-15T03:52:35.180Z,207.66
2023-04-15T03:53:35.125Z,207.71
2023-04-15T03:54:35.245Z,207.18
2023-04-15T03:55:35.302Z,205.44
2023-04-15T03:56:35.309Z,205.41
2023-04-15T03:57:35.337Z,206.97
2023-04-15T03:58:35.327Z,204.81
2023-04-15T03:59:35.328Z,202.90
2023-04-15T04:00:35.411Z,204.06
2023-04-15T04:01:35.454Z,203.77
2023-04-15T04:02:35.608Z,203.25
2023-04-15T04:03:35.685Z,204.83
2023-04-15T04:04:35.712Z,204.41
2023-04-15T04:05:35.822Z,203.75
2023-04-15T04:06:35.833Z,201.92
2023-04-15T04:07:35.787Z,203.75
2023-04-15T04:08:35.841Z,205.08
2023-04-15T04:09:35.822Z,202.27
2023-04-15T04:10:35.857Z,203.08
2023-04-15T04:11:35.818Z,204.18
2023-04-15T04:12:35.829Z,204.31
2023-04-15T04:13:35.834Z,202.13
2023-04-15T04:14:35.829Z,201.98
2023-04-15T04:15:35.983Z,201.71
2023-04-15T04:16:36.000Z,200.56
2023-04-15T04:17:35.999Z,200.96
2023-04-15T04:18:35.968Z,198.53
2023-04-15T04:19:35.985Z,199.09
2023-04-15T04:20:35.967Z,200.06
2023-04-15T04:21:36.046Z,198.57
2023-04-15T04:22:36.146Z,201.16
2023-04-15T04:23:36.154Z,197.03
2023-04-15T04:24:36.138Z,200.04
2023-04-15T04:25:36.160Z,199.22
2023-04-15T04:26:36.178Z,197.11
2023-04-15T04:27:36.265Z,199.10
2023-04-15T04:28:36.352Z,193.03
2023-04-15T04:29:36.280Z,197.88
2023-04-15T04:30:36.298Z,194.66
2023-04-15T04:31:36.320Z,196.16
2023-04-15T04:32:36.393Z,194.61
2023-04-15T04:33:36.485Z,194.66
2023-04-15T04:34:36.496Z,194.46
2023-04-15T04:35:36.451Z,193.33
2023-04-15T04:36:36.510Z,192.46
2023-04-15T04:37:36.521Z,192.84
2023-04-15T04:38:36.508Z,193.10
2023-04-15T04:39:36.624Z,192.68
2023-04-15T04:40:36.732Z,192.06
2023-04-15T04:41:36.737Z,190.76
2023-04-15T04:42:38.573Z,190.86
2023-04-15T04:43:36.746Z,192.15
2023-04-15T04:44:36.758Z,192.21
2023-04-15T04:45:36.728Z,190.08
2023-04-15T04:46:36.688Z,192.21
2023-04-15T04:47:36.753Z,193.54
2023-04-15T04:48:36.723Z,184.86
2023-04-15T04:49:36.699Z,188.41
2023-04-15T04:50:36.656Z,187.57
2023-04-15T04:51:36.691Z,188.53
2023-04-15T04:52:36.714Z,189.01
2023-04-15T04:53:36.648Z,187.77
2023-04-15T04:54:36.651Z,189.32
2023-04-15T04:55:36.624Z,190.53
2023-04-15T04:56:36.628Z,188.54
2023-04-15T04:57:36.646Z,188.58
2023-04-15T04:58:36.652Z,189.22
2023-04-15T04:59:36.658Z,187.25
2023-04-15T05:00:36.618Z,190.97
2023-04-15T05:01:36.689Z,186.14
2023-04-15T05:02:36.714Z,187.85
2023-04-15T05:03:36.706Z,185.16
2023-04-15T05:04:36.597Z,186.84
2023-04-15T05:05:36.601Z,186.64
2023-04-15T05:06:36.604Z,185.48
2023-04-15T05:07:36.607Z,184.93
2023-04-15T05:08:37.292Z,185.90
2023-04-15T05:09:36.613Z,183.81
2023-04-15T05:10:36.562Z,183.86
2023-04-15T05:11:36.537Z,182.80
2023-04-15T05:12:36.538Z,184.77
2023-04-15T05:13:36.537Z,182.42
2023-04-15T05:14:36.555Z,184.14
2023-04-15T05:15:36.577Z,181.10
2023-04-15T05:16:36.512Z,183.97
2023-04-15T05:17:36.547Z,181.20
2023-04-15T05:18:36.601Z,182.37
2023-04-15T05:19:36.476Z,181.07
2023-04-15T05:20:36.507Z,181.10
2023-04-15T05:21:38.243Z,179.89
2023-04-15T05:22:36.506Z,181.41
2023-04-15T05:23:36.439Z,179.01
2023-04-15T05:24:36.492Z,177.72
2023-04-15T05:25:36.465Z,178.46
2023-04-15T05:26:36.457Z,177.48
2023-04-15T05:27:36.447Z,175.70
2023-04-15T05:28:36.441Z,177.23
2023-04-15T05:29:36.455Z,175.86
2023-04-15T05:30:36.457Z,177.17
2023-04-15T05:31:36.501Z,176.60
2023-04-15T05:32:36.454Z,176.13
2023-04-15T05:33:36.439Z,170.95
2023-04-15T05:34:36.388Z,174.02
2023-04-15T05:35:36.392Z,170.73
2023-04-15T05:36:36.425Z,170.98
2023-04-15T05:37:36.399Z,170.89
2023-04-15T05:38:36.365Z,170.56
2023-04-15T05:39:36.339Z,172.57
2023-04-15T05:40:36.371Z,173.91
2023-04-15T05:41:36.355Z,173.85
2023-04-15T05:42:36.350Z,171.47
2023-04-15T05:43:36.356Z,172.75
2023-04-15T05:44:36.336Z,172.51
2023-04-15T05:45:36.419Z,172.40
2023-04-15T05:46:36.421Z,174.31
2023-04-15T05:47:36.337Z,170.76
2023-04-15T05:48:36.305Z,174.00
2023-04-15T05:49:36.321Z,172.95
2023-04-15T05:50:36.307Z,173.22
2023-04-15T05:51:36.295Z,173.40
2023-04-15T05:52:36.314Z,171.28
2023-04-15T05:53:36.236Z,170.00
2023-04-15T05:54:36.248Z,171.07
2023-04-15T05:55:36.276Z,170.48
2023-04-15T05:56:36.280Z,172.10
2023-04-15T05:57:36.249Z,171.52
2023-04-15T05:58:36.250Z,172.96
2023-04-15T05:59:36.247Z,173.42
2023-04-15T06:00:36.247Z,169.68
2023-04-15T06:01:36.265Z,173.33
2023-04-15T06:02:36.312Z,173.09
2023-04-15T06:03:36.398Z,172.62
2023-04-15T06:04:36.323Z,173.48
2023-04-15T06:05:36.221Z,173.62
2023-04-15T06:06:36.175Z,172.53
2023-04-15T06:07:36.175Z,170.61
2023-04-15T06:08:36.221Z,169.78
2023-04-15T06:09:36.214Z,168.36
2023-04-15T06:10:36.151Z,167.01
2023-04-15T06:11:36.166Z,169.34
2023-04-15T06:12:36.194Z,170.40
2023-04-15T06:13:36.139Z,168.69
2023-04-15T06:14:36.160Z,171.74
2023-04-15T06:15:36.149Z,171.00
2023-04-15T06:16:36.206Z,172.16
2023-04-15T06:17:36.133Z,169.90
2023-04-15T06:18:36.193Z,169.79
2023-04-15T06:19:36.094Z,168.01
2023-04-15T06:20:36.128Z,168.20
2023-04-15T06:21:36.108Z,166.21
2023-04-15T06:22:36.090Z,163.77
2023-04-15T06:23:36.111Z,165.58
2023-04-15T06:24:36.064Z,165.64
2023-04-15T06:25:36.136Z,166.15
2023-04-15T06:26:36.061Z,164.02
2023-04-15T06:27:36.071Z,165.78
2023-04-15T06:28:36.022Z,164.36
2023-04-15T06:29:36.160Z,163.40
2023-04-15T06:30:36.049Z,161.00
2023-04-15T06:31:36.084Z,162.89
2023-04-15T06:32:36.054Z,163.12
2023-04-15T06:33:36.017Z,161.30
2023-04-15T06:34:36.070Z,163.08
2023-04-15T06:35:35.990Z,163.52
2023-04-15T06:36:35.984Z,165.58
2023-04-15T06:37:36.015Z,161.94
2023-04-15T06:38:35.949Z,159.93
2023-04-15T06:39:35.942Z,163.76
2023-04-15T06:40:35.950Z,165.81
2023-04-15T06:41:35.972Z,166.36
2023-04-15T06:42:35.939Z,164.81
2023-04-15T06:43:35.920Z,166.87
2023-04-15T06:44:35.917Z,161.86
2023-04-15T06:45:35.987Z,164.76
2023-04-15T06:46:35.999Z,163.66
2023-04-15T06:47:35.915Z,162.53
2023-04-15T06:48:35.880Z,165.59
2023-04-15T06:49:35.908Z,163.22
2023-04-15T06:50:35.910Z,162.20
2023-04-15T06:51:35.872Z,158.15
2023-04-15T06:52:35.869Z,157.30
2023-04-15T06:53:35.841Z,159.90
2023-04-15T06:54:35.902Z,161.40
2023-04-15T06:55:35.864Z,160.63
2023-04-15T06:56:35.833Z,162.72
2023-04-15T06:57:35.825Z,161.08
2023-04-15T06:58:35.819Z,161.25
2023-04-15T06:59:35.814Z,160.92
2023-04-15T07:00:35.835Z,161.03
2023-04-15T07:01:35.964Z,161.44
2023-04-15T07:02:35.908Z,159.70
2023-04-15T07:03:35.794Z,160.64
2023-04-15T07:04:35.896Z,156.92
2023-04-15T07:05:35.820Z,155.84
2023-04-15T07:06:35.813Z,157.13
2023-04-15T07:07:35.780Z,156.12
2023-04-15T07:08:35.840Z,157.73
2023-04-15T07:09:35.799Z,154.89
2023-04-15T07:10:35.813Z,155.29
2023-04-15T07:11:35.743Z,152.49
2023-04-15T07:12:35.827Z,151.30
2023-04-15T07:13:35.753Z,152.77
2023-04-15T07:14:35.726Z,153.49
2023-04-15T07:15:35.691Z,153.43
2023-04-15T07:16:35.752Z,151.92
2023-04-15T07:17:35.765Z,153.46
2023-04-15T07:18:35.676Z,153.61
2023-04-15T07:19:35.684Z,152.95
2023-04-15T07:20:35.693Z,153.48
2023-04-15T07:21:35.659Z,149.36
2023-04-15T07:22:35.686Z,150.41
2023-04-15T07:23:35.729Z,151.26
2023-04-15T07:24:35.632Z,148.82
2023-04-15T07:25:35.683Z,149.89
2023-04-15T07:26:35.659Z,147.63
2023-04-15T07:27:35.747Z,150.58
2023-04-15T07:28:35.653Z,151.72
2023-04-15T07:29:35.660Z,151.19
2023-04-15T07:30:35.792Z,152.92
2023-04-15T07:31:35.792Z,151.44
2023-04-15T07:32:35.894Z,153.93
2023-04-15T07:33:35.902Z,152.90
2023-04-15T07:34:35.960Z,155.51
2023-04-15T07:35:36.008Z,155.24
2023-04-15T07:36:36.071Z,154.13
2023-04-15T07:37:36.163Z,157.72
2023-04-15T07:38:36.304Z,156.51
2023-04-15T07:39:36.287Z,155.15
2023-04-15T07:40:36.330Z,158.52
2023-04-15T07:41:36.421Z,156.55
2023-04-15T07:42:36.461Z,156.59
2023-04-15T07:43:36.539Z,159.43
2023-04-15T07:44:36.608Z,159.41
2023-04-15T07:45:36.670Z,156.39
2023-04-15T07:46:36.753Z,158.85
2023-04-15T07:47:36.836Z,160.47
2023-04-15T07:48:37.641Z,163.05
2023-04-15T07:49:36.804Z,160.50
2023-04-15T07:50:36.894Z,161.45
2023-04-15T07:51:36.900Z,162.78
2023-04-15T07:52:36.951Z,162.40
2023-04-15T07:53:36.996Z,162.38
2023-04-15T07:54:37.024Z,160.65
2023-04-15T07:55:37.080Z,161.38
2023-04-15T07:56:37.138Z,162.70
2023-04-15T07:57:37.147Z,164.79
2023-04-15T07:58:37.175Z,165.78
2023-04-15T07:59:37.219Z,167.32
2023-04-15T08:00:37.270Z,166.88
2023-04-15T08:01:37.335Z,168.16
2023-04-15T08:02:39.669Z,165.85
2023-04-15T08:03:37.520Z,168.44
2023-04-15T08:04:37.448Z,166.29
2023-04-15T08:05:37.342Z,168.59
2023-04-15T08:06:37.319Z,164.21
2023-04-15T08:07:37.325Z,166.66
2023-04-15T08:08:37.335Z,162.74
2023-04-15T08:09:37.282Z,162.46
2023-04-15T08:10:37.293Z,162.90
2023-04-15T08:11:37.268Z,159.92
2023-04-15T08:12:37.300Z,163.99
2023-04-15T08:13:37.260Z,156.48
2023-04-15T08:14:37.283Z,154.81
2023-04-15T08:15:37.324Z,160.00
2023-04-15T08:16:37.388Z,155.60
2023-04-15T08:17:37.347Z,156.32
2023-04-15T08:18:37.223Z,159.86
2023-04-15T08:19:37.233Z,152.87
2023-04-15T08:20:37.206Z,150.62
2023-04-15T08:21:37.231Z,156.05
2023-04-15T08:22:37.205Z,157.50
2023-04-15T08:23:37.224Z,151.76
2023-04-15T08:24:37.220Z,156.59
2023-04-15T08:25:37.230Z,154.58
2023-04-15T08:26:37.275Z,146.13
2023-04-15T08:27:37.167Z,157.37
2023-04-15T08:28:37.181Z,155.61
2023-04-15T08:29:37.194Z,149.68
2023-04-15T08:30:37.157Z,149.44
2023-04-15T08:31:37.248Z,151.54
2023-04-15T08:32:37.155Z,157.86
2023-04-15T08:33:37.176Z,158.21
2023-04-15T08:34:37.180Z,166.03
2023-04-15T08:35:37.135Z,149.85
2023-04-15T08:36:37.120Z,153.28
2023-04-15T08:37:37.186Z,154.50
2023-04-15T08:38:37.118Z,154.24
2023-04-15T08:39:37.129Z,160.51
2023-04-15T08:40:37.129Z,156.61
2023-04-15T08:41:37.109Z,157.71
2023-04-15T08:42:37.051Z,153.49
2023-04-15T08:43:37.071Z,159.57
2023-04-15T08:44:37.098Z,155.80
2023-04-15T08:45:37.099Z,156.23
2023-04-15T08:46:37.098Z,155.56
2023-04-15T08:47:37.097Z,154.97
2023-04-15T08:48:37.067Z,160.57
2023-04-15T08:49:37.072Z,151.64
2023-04-15T08:50:37.012Z,150.67
2023-04-15T08:51:37.030Z,158.58
2023-04-15T08:52:37.046Z,160.62
2023-04-15T08:53:37.064Z,158.22
2023-04-15T08:54:37.021Z,154.55
2023-04-15T08:55:37.027Z,152.69
2023-04-15T08:56:37.116Z,157.71
2023-04-15T08:57:37.061Z,161.80
2023-04-15T08:58:36.969Z,157.91
2023-04-15T08:59:36.987Z,155.07
2023-04-15T09:00:36.960Z,159.59
2023-04-15T09:01:36.977Z,153.69
2023-04-15T09:02:37.114Z,152.44
2023-04-15T09:03:37.157Z,159.24
2023-04-15T09:04:37.026Z,156.76
2023-04-15T09:05:37.026Z,151.62
2023-04-15T09:06:37.105Z,149.75
2023-04-15T09:07:37.146Z,151.72
2023-04-15T09:08:37.225Z,156.28
2023-04-15T09:09:37.261Z,159.23
2023-04-15T09:10:37.340Z,157.38
2023-04-15T09:11:37.370Z,153.99
2023-04-15T09:12:37.566Z,156.24
2023-04-15T09:13:37.508Z,153.54
2023-04-15T09:14:37.547Z,152.21
2023-04-15T09:15:37.620Z,155.19
2023-04-15T09:16:37.720Z,154.63
2023-04-15T09:17:37.744Z,153.31
2023-04-15T09:18:37.800Z,157.16
2023-04-15T09:19:37.829Z,156.67
2023-04-15T09:20:37.926Z,153.50
2023-04-15T09:21:37.926Z,153.66
2023-04-15T09:22:37.972Z,153.47
2023-04-15T09:23:38.031Z,157.87
2023-04-15T09:24:38.074Z,157.20
2023-04-15T09:25:38.096Z,154.72
2023-04-15T09:26:38.149Z,156.14
2023-04-15T09:27:38.190Z,157.67
2023-04-15T09:28:38.214Z,157.70
2023-04-15T09:29:38.274Z,158.11
2023-04-15T09:30:38.333Z,156.12
2023-04-15T09:31:38.306Z,161.33
2023-04-15T09:32:38.338Z,158.42
2023-04-15T09:33:38.358Z,159.34
2023-04-15T09:34:38.507Z,157.56
2023-04-15T09:35:38.359Z,159.75
2023-04-15T09:36:38.416Z,161.91
2023-04-15T09:37:38.419Z,162.55
2023-04-15T09:38:38.421Z,158.83
2023-04-15T09:39:38.477Z,160.28
2023-04-15T09:40:38.491Z,164.41
2023-04-15T09:41:38.489Z,163.11
2023-04-15T09:42:38.527Z,155.29
2023-04-15T09:43:38.533Z,156.10
2023-04-15T09:44:38.663Z,157.54
2023-04-15T09:45:38.565Z,155.15
2023-04-15T09:46:38.618Z,152.48
2023-04-15T09:47:38.643Z,155.44
2023-04-15T09:48:38.656Z,155.54
2023-04-15T09:49:38.768Z,152.40
2023-04-15T09:50:38.668Z,156.41
2023-04-15T09:51:38.721Z,153.63
2023-04-15T09:52:38.736Z,153.98
2023-04-15T09:53:38.738Z,152.46
2023-04-15T09:54:38.802Z,147.13
2023-04-15T09:55:38.754Z,144.56
2023-04-15T09:56:38.759Z,143.94
2023-04-15T09:57:38.767Z,143.67
2023-04-15T09:58:38.800Z,143.02
2023-04-15T09:59:38.861Z,141.66
2023-04-15T10:00:38.786Z,138.56
2023-04-15T10:01:38.810Z,135.12
2023-04-15T10:02:38.900Z,133.24
2023-04-15T10:03:38.922Z,130.81
2023-04-15T10:04:38.831Z,134.16
2023-04-15T10:05:38.809Z,136.56
2023-04-15T10:06:38.833Z,135.92
2023-04-15T10:07:38.898Z,131.61
2023-04-15T10:08:38.827Z,125.97
2023-04-15T10:09:38.852Z,129.11
2023-04-15T10:10:38.855Z,128.03
2023-04-15T10:11:38.854Z,123.99
2023-04-15T10:12:38.874Z,124.92
2023-04-15T10:13:38.916Z,127.62
2023-04-15T10:14:39.036Z,128.28
2023-04-15T10:15:38.946Z,132.00
2023-04-15T10:16:38.943Z,129.70
2023-04-15T10:17:38.908Z,127.87
2023-04-15T10:18:38.918Z,127.94
2023-04-15T10:19:38.914Z,124.18
2023-04-15T10:20:38.873Z,127.13
2023-04-15T10:21:38.922Z,126.46
2023-04-15T10:22:38.898Z,121.18
2023-04-15T10:23:38.944Z,127.08
2023-04-15T10:24:38.959Z,127.08
2023-04-15T10:25:38.950Z,126.30
2023-04-15T10:26:38.958Z,130.13
2023-04-15T10:27:39.073Z,124.77
2023-04-15T10:28:38.976Z,123.82
2023-04-15T10:29:38.981Z,120.42
2023-04-15T10:30:38.991Z,121.50
2023-04-15T10:31:39.031Z,124.14
2023-04-15T10:32:39.062Z,120.34
2023-04-15T10:33:39.054Z,124.40
2023-04-15T10:34:39.151Z,124.32
2023-04-15T10:35:39.174Z,122.70
2023-04-15T10:36:39.200Z,122.05
2023-04-15T10:37:39.248Z,123.17
2023-04-15T10:38:39.266Z,124.60
2023-04-15T10:39:39.315Z,124.38
2023-04-15T10:40:39.412Z,118.07
2023-04-15T10:41:39.474Z,119.58
2023-04-15T10:42:39.505Z,119.32
2023-04-15T10:43:39.640Z,121.57
2023-04-15T10:44:39.652Z,119.49
2023-04-15T10:45:39.720Z,119.26
2023-04-15T10:46:39.798Z,122.00
2023-04-15T10:47:39.857Z,122.04
2023-04-15T10:48:39.939Z,121.31
2023-04-15T10:49:39.967Z,123.76
2023-04-15T10:50:39.977Z,127.31
2023-04-15T10:51:40.048Z,124.86
2023-04-15T10:52:40.117Z,124.36
2023-04-15T10:53:40.208Z,125.38
2023-04-15T10:54:40.198Z,124.63
2023-04-15T10:55:40.294Z,124.88
2023-04-15T10:56:40.384Z,129.86
2023-04-15T10:57:40.405Z,121.81
2023-04-15T10:58:40.414Z,122.59
2023-04-15T10:59:40.491Z,121.30
2023-04-15T11:00:40.519Z,123.79
2023-04-15T11:01:40.580Z,127.96
2023-04-15T11:02:40.767Z,122.18
2023-04-15T11:03:40.759Z,123.96
2023-04-15T11:04:42.588Z,119.67
2023-04-15T11:05:40.838Z,119.03
2023-04-15T11:06:40.843Z,122.43
2023-04-15T11:07:40.882Z,123.16
2023-04-15T11:08:40.885Z,120.19
2023-04-15T11:09:40.989Z,123.81
2023-04-15T11:10:41.012Z,122.32
2023-04-15T11:11:41.053Z,123.85
2023-04-15T11:12:41.169Z,124.40
2023-04-15T11:13:41.120Z,115.30
2023-04-15T11:14:41.162Z,117.91
2023-04-15T11:15:41.232Z,122.08
2023-04-15T11:16:41.346Z,123.91
2023-04-15T11:17:41.338Z,121.62
2023-04-15T11:18:41.379Z,121.29
2023-04-15T11:19:41.417Z,124.98
2023-04-15T11:20:41.420Z,121.43
2023-04-15T11:21:41.438Z,119.25
2023-04-15T11:22:41.485Z,121.86
2023-04-15T11:23:41.490Z,123.50
2023-04-15T11:24:41.550Z,122.01
2023-04-15T11:25:41.605Z,123.16
2023-04-15T11:26:41.578Z,121.14
2023-04-15T11:27:41.625Z,121.38
2023-04-15T11:28:41.646Z,125.59
2023-04-15T11:29:41.682Z,121.65
2023-04-15T11:30:41.679Z,123.90
2023-04-15T11:31:41.705Z,123.29
2023-04-15T11:32:41.740Z,119.73
2023-04-15T11:33:41.708Z,117.60
2023-04-15T11:34:41.766Z,119.37
2023-04-15T11:35:42.034Z,117.52
2023-04-15T11:36:41.777Z,114.16
2023-04-15T11:37:41.786Z,112.60
2023-04-15T11:38:41.817Z,112.71
2023-04-15T11:39:41.809Z,114.87
2023-04-15T11:40:43.313Z,118.60
2023-04-15T11:41:42.026Z,116.98
2023-04-15T11:42:49.725Z,117.70
2023-04-15T11:43:43.079Z,117.77
2023-04-15T11:44:41.846Z,118.02
2023-04-15T11:45:41.856Z,117.07
2023-04-15T11:46:42.724Z,113.76
2023-04-15T11:47:41.860Z,111.76
2023-04-15T11:48:41.813Z,115.58
2023-04-15T11:49:41.830Z,112.94
2023-04-15T11:50:41.761Z,113.86
2023-04-15T11:51:41.806Z,113.67
2023-04-15T11:52:41.806Z,115.87
2023-04-15T11:53:41.801Z,115.51
2023-04-15T11:54:41.745Z,114.21
2023-04-15T11:55:41.746Z,112.06
2023-04-15T11:56:41.713Z,112.72
2023-04-15T11:57:41.729Z,108.16
2023-04-15T11:58:41.732Z,108.12
2023-04-15T11:59:45.359Z,107.07
2023-04-15T12:00:41.746Z,107.13
2023-04-15T12:01:41.703Z,106.22
2023-04-15T12:02:41.819Z,109.01
2023-04-15T12:03:41.898Z,109.72
2023-04-15T12:04:41.806Z,108.61
2023-04-15T12:05:41.681Z,110.64
2023-04-15T12:06:41.677Z,110.02
2023-04-15T12:07:41.736Z,108.43
2023-04-15T12:08:41.690Z,105.73
2023-04-15T12:09:41.625Z,108.87
2023-04-15T12:10:41.648Z,108.53
2023-04-15T12:11:41.714Z,109.19
2023-04-15T12:12:41.620Z,105.40
2023-04-15T12:13:41.625Z,105.85
2023-04-15T12:14:41.681Z,102.33
2023-04-15T12:15:41.675Z,101.34
2023-04-15T12:16:49.233Z,98.93
2023-04-15T12:17:51.513Z,99.16
2023-04-15T12:18:42.624Z,99.29
2023-04-15T12:19:41.611Z,99.61
2023-04-15T12:20:41.565Z,100.00
2023-04-15T12:21:41.647Z,102.14
2023-04-15T12:22:41.585Z,100.66
2023-04-15T12:23:41.588Z,103.18
2023-04-15T12:24:41.596Z,104.73
2023-04-15T12:25:41.564Z,103.56
2023-04-15T12:26:41.623Z,102.55
2023-04-15T12:27:41.558Z,99.42
2023-04-15T12:28:41.562Z,97.10